Latest Weather Observations for Maryborough

IDQ60801

Issued at 7:02 am EST Monday 27 May 2024 (issued every 10 minutes, with the page automatically refreshed every 10 minutes)

About weather observations | Map of weather stations | Latest weather observations for QLD | Other Formats
Station Details ID: 040126 Name: MARYBOROUGH Lat: -25.51 Lon: 152.72 Height: 8.98 m
Data from the previous 72 hours. | See also: Recent months at Maryborough
Date/Time
EST
Temp
°C
App
Temp
°C
Dew
Point
°C
Rel
Hum
%
Delta-T
°C
Wind Press
QNH
hPa
Press
MSL
hPa
Rain since
9am
mm
Dir  Spd
km/h
Gust
km/h
Spd
kts
Gust
kts
27/07:00am 13.8 13.7 13.8 100 0.0 SW 7 9 4 5 1023.6 1023.5 0.0
27/06:30am 13.3 13.5 13.1 99 0.1 SW 4 9 2 5 1023.4 1023.3 0.0
27/06:00am 13.1 12.7 12.9 99 0.1 SW 7 9 4 5 1022.9 1022.8 0.0
27/05:30am 13.4 14.4 13.2 99 0.1 CALM 0 0 0 0 1022.7 1022.6 0.0
27/05:14am 13.1 13.6 12.9 99 0.1 SSW 2 6 1 3 1022.6 1022.5 0.0
27/05:00am 13.3 13.5 13.1 99 0.1 SSW 4 7 2 4 1022.4 1022.3 0.0
27/04:45am 13.4 13.1 13.2 99 0.1 SSW 7 9 4 5 1022.3 1022.2 0.0
27/04:30am 13.3 13.1 13.1 99 0.1 SW 6 9 3 5 1022.4 1022.3 0.0
27/04:00am 13.9 13.4 13.7 99 0.1 SW 9 11 5 6 1022.1 1022.0 0.0
27/03:30am 14.2 14.2 14.2 100 0.0 SW 7 11 4 6 1022.3 1022.2 0.0
27/03:00am 14.2 14.2 14.2 100 0.0 SSW 7 9 4 5 1022.5 1022.4 0.0
27/02:30am 13.8 13.6 13.6 99 0.1 SSW 7 9 4 5 1022.5 1022.4 0.0
27/02:00am 13.8 13.6 13.6 99 0.1 SSW 7 9 4 5 1022.7 1022.6 0.0
27/01:30am 14.3 14.5 14.3 100 0.0 SE 6 7 3 4 1023.1 1023.0 0.0
27/01:00am 14.1 14.2 13.9 99 0.1 SE 6 9 3 5 1023.2 1023.1 0.0
27/12:46am 13.6 13.9 13.4 99 0.1 SE 4 7 2 4 1023.2 1023.1 0.0
27/12:30am 13.8 14.9 13.6 99 0.1 CALM 0 0 0 0 1023.3 1023.2 0.0
27/12:26am 13.9 15.1 13.7 99 0.1 CALM 0 0 0 0 1023.3 1023.2 0.0
27/12:03am 14.1 15.3 13.9 99 0.1 CALM 0 0 0 0 1023.4 1023.3 0.0
27/12:00am 14.1 15.3 13.9 99 0.1 CALM 0 0 0 0 1023.3 1023.2 0.0
 
Date/Time
EST
Temp
°C
App
Temp
°C
Dew
Point
°C
Rel
Hum
%
Delta-T
°C
Wind Press
QNH
hPa
Press
MSL
hPa
Rain since
9am
mm
Dir  Spd
km/h
Gust
km/h
Spd
kts
Gust
kts
26/11:30pm 14.2 15.5 14.0 99 0.1 CALM 0 0 0 0 1023.3 1023.2 0.0
26/11:03pm 14.4 15.7 14.2 99 0.1 CALM 0 0 0 0 1023.5 1023.4 0.0
26/11:00pm 14.3 15.6 14.1 99 0.1 CALM 0 0 0 0 1023.5 1023.4 0.0
26/10:56pm 14.3 15.6 14.1 99 0.1 CALM 0 0 0 0 1023.6 1023.5 0.0
26/10:32pm 14.7 16.1 14.5 99 0.1 CALM 0 6 0 3 1023.6 1023.5 0.0
26/10:30pm 14.6 15.6 14.4 99 0.1 SE 2 6 1 3 1023.6 1023.5 0.0
26/10:00pm 14.6 15.6 14.4 99 0.1 SE 2 7 1 4 1023.4 1023.3 0.0
26/09:33pm 14.7 16.1 14.5 99 0.1 CALM 0 0 0 0 1023.3 1023.2 0.0
26/09:30pm 14.7 16.1 14.5 99 0.1 CALM 0 0 0 0 1023.3 1023.2 0.0
26/09:00pm 14.8 15.1 14.6 99 0.1 SE 6 7 3 4 1023.1 1023.0 0.0
26/08:30pm 15.2 15.6 14.7 97 0.3 SE 6 7 3 4 1023.1 1023.0 0.0
26/08:00pm 15.9 17.6 15.1 95 0.5 CALM 0 6 0 3 1023.0 1022.9 0.0
26/07:30pm 16.3 16.9 15.7 96 0.4 SE 7 9 4 5 1022.8 1022.7 0.0
26/07:00pm 16.1 15.7 15.1 94 0.6 SSE 11 13 6 7 1022.6 1022.5 0.0
26/06:30pm 16.7 17.3 15.2 91 0.9 ESE 6 7 3 4 1022.5 1022.4 0.0
26/06:00pm 17.6 18.1 15.0 85 1.5 ESE 6 7 3 4 1022.2 1022.1 0.0
26/05:30pm 17.7 17.9 14.8 83 1.7 ESE 7 9 4 5 1022.0 1021.9 0.0
26/05:00pm 20.3 20.7 15.3 73 2.9 ESE 7 11 4 6 1021.8 1021.7 0.0
26/04:30pm 21.5 21.4 14.9 66 3.9 ESE 9 15 5 8 1021.7 1021.6 0.0
26/04:00pm 22.3 21.5 15.2 64 4.2 ESE 13 20 7 11 1021.4 1021.3 0.0
26/03:30pm 22.9 22.5 15.2 62 4.6 ESE 11 20 6 11 1021.2 1021.1 0.0
26/03:00pm 23.6 22.2 15.6 61 4.8 SE 17 20 9 11 1021.3 1021.2 0.0
26/02:30pm 23.5 21.6 15.3 60 4.9 SE 19 24 10 13 1021.2 1021.1 0.0
26/02:00pm 23.5 22.1 15.5 60 4.8 SE 17 26 9 14 1021.5 1021.4 0.0
26/01:30pm 23.2 21.7 14.2 57 5.3 SE 15 19 8 10 1021.5 1021.4 0.0
26/01:00pm 24.5 23.1 14.6 54 5.9 SE 15 20 8 11 1021.7 1021.6 0.0
26/12:30pm 23.4 21.9 14.1 56 5.5 SSE 15 22 8 12 1022.3 1022.2 0.0
26/12:00pm 23.2 22.6 14.7 58 5.0 SSE 11 19 6 10 1022.8 1022.7 0.0
26/11:30am 23.7 22.3 15.5 60 4.9 SSE 17 20 9 11 1023.2 1023.1 0.0
26/11:00am 23.4 22.4 15.7 62 4.6 SSE 15 26 8 14 1023.5 1023.4 0.0
26/10:30am 22.7 22.2 16.0 66 4.0 SE 13 20 7 11 1024.0 1023.9 0.0
26/10:00am 21.3 21.0 15.4 69 3.5 SSE 11 17 6 9 1024.3 1024.2 0.0
26/09:30am 20.5 20.1 16.3 77 2.5 SSE 13 20 7 11 1024.4 1024.3 0.0
26/09:00am 19.1 18.2 15.8 81 1.9 S 15 20 8 11 1024.3 1024.2 0.0
26/08:30am 17.8 16.4 15.6 87 1.3 S 17 20 9 11 1024.1 1024.0 0.0
26/08:00am 17.2 16.7 15.9 92 0.8 S 13 17 7 9 1024.0 1023.9 0.0
26/07:30am 15.8 15.9 15.5 98 0.2 SSW 9 15 5 8 1023.8 1023.7 0.0
26/07:00am 15.0 14.8 14.8 99 0.1 SSW 9 13 5 7 1023.6 1023.5 0.0
26/06:30am 14.4 14.4 14.2 99 0.1 SSW 7 11 4 6 1023.3 1023.2 0.0
26/06:00am 14.1 14.2 13.9 99 0.1 SSW 6 9 3 5 1023.1 1023.0 0.0
26/05:30am 14.7 16.1 14.5 99 0.1 CALM 0 6 0 3 1023.0 1022.9 0.0
26/05:00am 14.9 15.1 14.7 99 0.1 S 7 9 4 5 1022.7 1022.6 0.0
26/04:30am 14.8 14.6 14.6 99 0.1 S 9 11 5 6 1022.6 1022.5 0.0
26/04:00am 14.6 14.9 14.4 99 0.1 SE 6 9 3 5 1022.9 1022.8 0.0
26/03:30am 14.4 14.0 14.2 99 0.1 S 9 13 5 7 1022.6 1022.5 0.0
26/03:00am 15.0 14.4 14.7 98 0.2 SSW 11 13 6 7 1022.6 1022.5 0.0
26/02:30am 15.5 15.1 15.3 99 0.1 S 11 15 6 8 1022.7 1022.6 0.0
26/02:00am 15.5 15.1 15.3 99 0.1 SSW 11 15 6 8 1023.0 1022.9 0.0
26/01:30am 15.1 15.0 14.9 99 0.1 S 9 13 5 7 1023.5 1023.4 0.0
26/01:00am 14.6 14.4 14.6 100 0.0 S 9 15 5 8 1023.4 1023.3 0.0
26/12:30am 13.5 14.5 13.3 99 0.1 CALM 0 0 0 0 1023.5 1023.4 0.0
26/12:10am 13.4 13.6 13.2 99 0.1 S 4 7 2 4 1023.4 1023.3 0.0
26/12:03am 13.8 14.9 13.6 99 0.1 CALM 0 0 0 0 1023.5 1023.4 0.0
26/12:00am 13.8 14.9 13.6 99 0.1 CALM 0 0 0 0 1023.5 1023.4 0.0
 
Date/Time
EST
Temp
°C
App
Temp
°C
Dew
Point
°C
Rel
Hum
%
Delta-T
°C
Wind Press
QNH
hPa
Press
MSL
hPa
Rain since
9am
mm
Dir  Spd
km/h
Gust
km/h
Spd
kts
Gust
kts
25/11:30pm 14.1 15.3 13.9 99 0.1 CALM 0 0 0 0 1023.6 1023.5 0.0
25/11:16pm 14.2 15.5 14.0 99 0.1 CALM 0 0 0 0 1023.6 1023.5 0.0
25/11:00pm 14.4 15.7 14.2 99 0.1 CALM 0 0 0 0 1023.7 1023.6 0.0
25/10:30pm 15.2 15.5 15.0 99 0.1 S 7 7 4 4 1023.6 1023.5 0.0
25/10:00pm 15.1 15.6 14.9 99 0.1 SSE 6 9 3 5 1023.7 1023.6 0.0
25/09:30pm 14.9 15.1 14.7 99 0.1 SSE 7 9 4 5 1024.0 1023.9 0.0
25/09:00pm 15.4 15.0 15.2 99 0.1 SSE 11 13 6 7 1024.1 1024.0 0.0
25/08:30pm 15.9 16.0 15.6 98 0.2 S 9 11 5 6 1024.1 1024.0 0.0
25/08:00pm 16.7 17.4 15.7 94 0.6 SSE 6 6 3 3 1023.9 1023.8 0.0
25/07:30pm 16.9 17.0 15.4 91 0.9 SE 9 11 5 6 1023.7 1023.6 0.0
25/07:00pm 17.7 18.3 16.7 94 0.6 ESE 9 13 5 7 1023.7 1023.6 0.0
25/06:30pm 17.0 17.3 16.0 94 0.6 SE 9 9 5 5 1023.2 1023.1 0.0
25/06:00pm 17.1 18.6 15.6 91 0.9 SE 2 7 1 4 1023.1 1023.0 0.0
25/05:30pm 18.3 19.0 15.6 84 1.6 SSE 6 7 3 4 1022.7 1022.6 0.0
25/05:00pm 19.7 19.0 15.4 76 2.5 SE 13 17 7 9 1022.4 1022.3 0.0
25/04:30pm 21.3 20.2 15.4 69 3.5 ESE 15 20 8 11 1022.0 1021.9 0.0
25/04:00pm 22.1 20.4 14.7 63 4.3 ESE 17 22 9 12 1021.8 1021.7 0.0
25/03:30pm 22.7 20.9 14.5 60 4.8 SE 17 24 9 13 1021.7 1021.6 0.0
25/03:00pm 23.3 21.0 14.0 56 5.4 SE 19 28 10 15 1021.8 1021.7 0.0
25/02:30pm 23.5 21.5 15.0 59 5.1 ESE 19 28 10 15 1021.8 1021.7 0.0
25/02:00pm 24.3 21.7 15.0 56 5.5 SE 22 28 12 15 1022.0 1021.9 0.0
25/01:30pm 24.1 22.9 15.1 57 5.4 ESE 15 24 8 13 1022.2 1022.1 0.0
25/01:00pm 24.4 23.1 14.8 55 5.7 SE 15 24 8 13 1022.6 1022.5 0.0
25/12:30pm 24.5 22.9 16.0 59 5.2 SE 19 24 10 13 1022.9 1022.8 0.0
25/12:00pm 23.2 22.5 16.3 65 4.2 SE 15 19 8 10 1023.4 1023.3 0.0
25/11:30am 22.8 21.3 15.4 63 4.4 SSE 17 20 9 11 1024.0 1023.9 0.0
25/11:00am 22.9 22.6 17.4 71 3.4 S 15 22 8 12 1024.4 1024.3 0.0
25/10:30am 21.9 20.9 16.6 72 3.2 S 17 22 9 12 1025.0 1024.9 0.0
25/10:00am 20.5 19.4 16.3 77 2.5 S 17 22 9 12 1025.3 1025.2 0.0
25/09:30am 20.6 19.0 16.4 77 2.5 S 20 26 11 14 1025.1 1025.0 0.0
25/09:00am 19.2 18.4 16.2 83 1.8 SSW 15 19 8 10 1025.0 1024.9 0.6
25/08:30am 18.0 17.7 16.5 91 0.9 SSW 13 20 7 11 1024.8 1024.7 0.6
25/08:00am 17.6 17.4 16.8 95 0.5 SSW 13 17 7 9 1024.6 1024.5 0.6
25/07:30am 17.1 17.4 16.9 99 0.1 SSW 11 19 6 10 1024.1 1024.0 0.6
25/07:00am 16.4 16.4 16.2 99 0.1 S 11 15 6 8 1023.9 1023.8 0.6
25/06:30am 15.9 15.3 15.7 99 0.1 S 13 13 7 7 1023.5 1023.4 0.6
25/06:00am 16.3 17.0 16.1 99 0.1 SW 7 11 4 6 1023.7 1023.6 0.6
25/05:30am 16.5 17.5 16.3 99 0.1 S 6 9 3 5 1023.7 1023.6 0.6
25/05:00am 16.4 16.0 16.2 99 0.1 S 13 17 7 9 1023.1 1023.0 0.6
25/04:30am 16.5 16.5 16.3 99 0.1 SW 11 15 6 8 1023.1 1023.0 0.6
25/04:00am 16.6 16.3 16.4 99 0.1 SSW 13 17 7 9 1022.8 1022.7 0.6
25/03:30am 16.6 15.9 16.4 99 0.1 SSW 15 17 8 9 1022.9 1022.8 0.6
25/03:09am 16.7 15.7 16.5 99 0.1 SSW 17 20 9 11 1023.0 1022.9 0.6
25/03:00am 16.6 15.1 16.4 99 0.1 SSW 19 22 10 12 1023.1 1023.0 0.6
25/02:30am 16.5 15.0 16.3 99 0.1 SSE 19 24 10 13 1023.7 1023.6 0.2
25/02:24am 16.4 15.2 16.2 99 0.1 SE 17 22 9 12 1023.7 1023.6 0.0
25/02:00am 16.4 16.8 16.2 99 0.1 SSW 9 15 5 8 1023.5 1023.4 0.0
25/01:30am 16.6 16.5 16.1 97 0.3 SSW 11 15 6 8 1023.6 1023.5 0.0
25/01:00am 16.7 16.4 16.4 98 0.2 SSW 13 19 7 10 1024.0 1023.9 0.0
25/12:30am 17.1 16.9 16.8 98 0.2 SSW 13 17 7 9 1024.4 1024.3 0.0
25/12:08am 17.1 17.7 16.8 98 0.2 WSW 9 11 5 6 1024.3 1024.2 0.0
25/12:00am 17.1 17.6 16.6 97 0.3 SSW 9 13 5 7 1024.5 1024.4 0.0
 
Date/Time
EST
Temp
°C
App
Temp
°C
Dew
Point
°C
Rel
Hum
%
Delta-T
°C
Wind Press
QNH
hPa
Press
MSL
hPa
Rain since
9am
mm
Dir  Spd
km/h
Gust
km/h
Spd
kts
Gust
kts
24/11:54pm 17.1 17.2 16.6 97 0.3 S 11 17 6 9 1024.6 1024.5 0.0
24/11:38pm 17.2 17.3 16.4 95 0.5 SW 11 13 6 7 1024.6 1024.5 0.0
24/11:30pm 17.3 18.1 16.3 94 0.6 S 7 13 4 7 1024.7 1024.6 0.0
24/11:25pm 17.3 18.2 16.2 93 0.7 ESE 6 11 3 6 1024.8 1024.7 0.0
24/11:00pm 17.8 17.3 15.8 88 1.2 SE 13 17 7 9 1024.9 1024.8 0.0
24/10:30pm 18.1 17.2 15.9 87 1.3 S 15 24 8 13 1024.6 1024.5 0.0
24/10:00pm 18.1 18.5 16.4 90 1.0 S 9 13 5 7 1024.8 1024.7 0.0
24/09:30pm 17.9 20.1 16.6 92 0.8 CALM 0 7 0 4 1024.5 1024.4 0.0
24/09:00pm 18.0 18.4 16.3 90 1.0 SSE 9 11 5 6 1024.2 1024.1 0.0
24/08:30pm 18.0 18.2 16.7 92 0.8 SSE 11 15 6 8 1024.3 1024.2 0.0
24/08:00pm 17.9 17.6 16.4 91 0.9 SSE 13 17 7 9 1024.0 1023.9 0.0
24/07:30pm 17.6 17.4 16.6 94 0.6 SSE 13 19 7 10 1023.6 1023.5 0.0
24/07:00pm 16.7 17.6 16.1 96 0.4 SSE 6 9 3 5 1023.2 1023.1 0.0
24/06:30pm 17.2 18.0 15.9 92 0.8 SSE 6 7 3 4 1023.3 1023.2 0.0
24/06:00pm 17.8 18.4 15.8 88 1.2 SSE 7 11 4 6 1023.0 1022.9 0.0
24/05:30pm 19.0 19.3 15.9 82 1.8 SSE 9 13 5 7 1022.9 1022.8 0.0
24/05:00pm 19.7 20.4 16.0 79 2.2 SSE 7 11 4 6 1022.7 1022.6 0.0
24/04:30pm 20.2 19.7 15.8 76 2.6 SSE 13 17 7 9 1022.6 1022.5 0.0
24/04:00pm 20.5 20.7 15.7 74 2.8 SSE 9 13 5 7 1022.2 1022.1 0.0
24/03:30pm 20.0 19.5 15.8 77 2.5 SE 13 19 7 10 1022.2 1022.1 0.0
24/03:00pm 19.2 17.3 15.1 77 2.4 ESE 19 37 10 20 1022.4 1022.3 0.0
24/02:52pm 20.5 16.9 15.3 72 3.1 SE 28 46 15 25 1022.4 1022.3 0.0
24/02:30pm 22.1 20.2 15.7 67 3.8 SE 20 30 11 16 1022.2 1022.1 0.0
24/02:00pm 23.1 20.8 14.7 59 5.0 SE 20 28 11 15 1022.2 1022.1 0.0
24/01:30pm 24.7 21.9 14.2 52 6.2 SE 22 30 12 16 1022.1 1022.0 0.0
24/01:00pm 22.5 21.1 14.4 60 4.7 ESE 15 20 8 11 1022.6 1022.5 0.0
24/12:30pm 23.6 20.9 14.6 57 5.3 SE 22 33 12 18 1022.9 1022.8 0.0
24/12:00pm 23.8 21.4 14.5 56 5.5 SE 20 28 11 15 1023.2 1023.1 0.0
24/11:30am 24.0 22.0 15.5 59 5.1 SE 20 26 11 14 1023.7 1023.6 0.0
24/11:00am 23.1 21.0 14.7 59 5.0 SSE 19 24 10 13 1024.0 1023.9 0.0
24/10:30am 22.9 21.4 15.2 62 4.6 SSE 17 24 9 13 1024.2 1024.1 0.0
24/10:00am 22.2 20.5 14.8 63 4.4 S 17 24 9 13 1024.5 1024.4 0.0
24/09:30am 21.1 20.0 15.2 69 3.5 S 15 20 8 11 1024.8 1024.7 0.0
24/09:00am 19.4 18.7 15.5 78 2.3 S 13 17 7 9 1024.9 1024.8 0.0
24/08:30am 17.3 17.5 14.6 84 1.6 S 7 11 4 6 1024.6 1024.5 0.0
24/08:00am 15.3 14.7 13.5 89 1.0 SSW 9 13 5 7 1024.6 1024.5 0.0
24/07:30am 14.3 13.0 12.5 89 1.0 S 11 13 6 7 1024.6 1024.5 0.0

Other formats

Comma delimited format used in spreadsheet applications
http://www.bom.gov.au/fwo/IDQ60801/IDQ60801.94567.axf

JavaScript Object Notation format (JSON) in row-major order
http://www.bom.gov.au/fwo/IDQ60801/IDQ60801.94567.json

Data quality

Most of these data are generated automatically and are frequently updated. Quality checks on data are not normally performed. It is possible for incorrect values to appear. Refer to information at About Latest Weather Observations and please check the disclaimer before using these data.